Apple Creek, MO

6:19 AM CDT on September 01, 2014 (GMT -0500)
Northwest Jackson | Change Station
CLOSE
Current Station
Personal Weather Station
Location: Jackson, MO
Elevation: 465 ft
Nearby Weather Stations

Elev 465 ft 37.39 °N, 89.68 °W | Updated 4 minutes ago

Mostly Cloudy
Mostly Cloudy
74.0 °F
Feels Like 72 °F
N
1.0
Wind Variable Wind from WSW
Gusts 0.0 mph

Today
High -- | Low -- °F
--% Chance of Precip.
Yesterday
High -- | Low -- °F
Precip. -- in
6:29 AM 7:27 PM
Waxing Crescent, 40% visible
Pressure 29.96 in
Visibility 10.0 miles
Clouds Scattered Clouds 1000 ft
Mostly Cloudy 1900 ft
Overcast 2800 ft
Heat Index 72 °F
Dew Point 71 °F
Humidity 90%
Rainfall 0.00 in
Snow Depth Not available.
UV 0 out of 12
Pollen 11.20 out of 12
Air Quality Not available.
Flu Activity Not available.
METAR KCGI 011053Z AUTO 21009KT 10SM SCT010 BKN019 OVC028 23/22 A2997 RMK AO2 SLP145 T02330222

More Conditions Fewer Conditions

Pressure 29.96 in
Visibility 10.0 miles
Clouds Scattered Clouds 1000 ft
Mostly Cloudy 1900 ft
Overcast 2800 ft
Heat Index 72 °F
Dew Point 71 °F
Humidity 90%
Rainfall 0.00 in
Snow Depth Not available.
UV 0 out of 12
Pollen 11.20 out of 12
Air Quality Not available.
Flu Activity Not available.
METAR KCGI 011053Z AUTO 21009KT 10SM SCT010 BKN019 OVC028 23/22 A2997 RMK AO2 SLP145 T02330222

More Conditions Fewer Conditions

10-Day Weather Forecast

Almanac

Astronomy

Sep. 01, 2014 Rise Set
Actual Time 6:29 AM CDT 7:27 PM CDT
Civil Twilight 6:02 AM CDT 7:54 PM CDT
Nautical Twilight 5:30 AM CDT 8:26 PM CDT
Astronomical Twilight 4:57 AM CDT 8:59 PM CDT
Moon 1:06 PM CDT 11:37 PM CDT
Length of Visible Light 13h 52m
Length of Day
12h 58m
Tomorrow will be 2m 18s shorter.
Waxing Crescent, 40% of the Moon is Illuminated
Today
Waxing Crescent
Sep 2
First Quarter
Sep 8
Full
Sep 15
Last Quarter
Sep 24
New

Today's Extremes

State Highs State Lows

Community

WunderPhotos

Upload Photos

1,749,188 photos uploaded!

Nearby

Snow Depth

Station Depth Elevation
No new snow has been reported.

Earthquake Activity

City Distance Mag. Time & Date
Tiptonville, Tennessee 78 miles 3.1 11:19 PM CDT
2014-08-31
Minimum magnitude displayed is 2.5.

Coastal Water Temperatures

Place Temperature
No Stations Reporting

Nearby Weather Stations